sensor_id;sensor_type;location;lat;lon;timestamp;temperature;humidity
580;DHT22;276;48.392;9.950;2024-02-15T00:02:17;12.10;99.90
580;DHT22;276;48.392;9.950;2024-02-15T00:04:45;12.10;99.90
580;DHT22;276;48.392;9.950;2024-02-15T00:07:13;12.10;99.90
580;DHT22;276;48.392;9.950;2024-02-15T00:09:44;12.10;99.90
580;DHT22;276;48.392;9.950;2024-02-15T00:12:14;12.10;99.90
580;DHT22;276;48.392;9.950;2024-02-15T00:14:42;12.10;99.90
580;DHT22;276;48.392;9.950;2024-02-15T00:17:08;12.00;99.90
580;DHT22;276;48.392;9.950;2024-02-15T00:19:33;12.00;99.90
580;DHT22;276;48.392;9.950;2024-02-15T00:22:01;12.00;99.90
580;DHT22;276;48.392;9.950;2024-02-15T00:24:32;11.90;99.90
580;DHT22;276;48.392;9.950;2024-02-15T00:27:00;11.90;99.90
580;DHT22;276;48.392;9.950;2024-02-15T00:29:25;11.90;99.90
580;DHT22;276;48.392;9.950;2024-02-15T00:31:54;11.90;99.90
580;DHT22;276;48.392;9.950;2024-02-15T00:34:20;11.90;99.90
580;DHT22;276;48.392;9.950;2024-02-15T00:36:46;11.80;99.90
580;DHT22;276;48.392;9.950;2024-02-15T00:39:12;11.80;99.90
580;DHT22;276;48.392;9.950;2024-02-15T00:41:40;11.80;99.90
580;DHT22;276;48.392;9.950;2024-02-15T00:44:09;11.70;99.90
580;DHT22;276;48.392;9.950;2024-02-15T00:46:37;11.70;99.90
580;DHT22;276;48.392;9.950;2024-02-15T00:49:05;11.70;99.90
580;DHT22;276;48.392;9.950;2024-02-15T00:51:35;11.60;99.90
580;DHT22;276;48.392;9.950;2024-02-15T00:54:03;11.60;99.90
580;DHT22;276;48.392;9.950;2024-02-15T00:56:29;11.60;99.90
580;DHT22;276;48.392;9.950;2024-02-15T00:58:58;11.60;99.90
580;DHT22;276;48.392;9.950;2024-02-15T01:01:24;11.60;99.90
580;DHT22;276;48.392;9.950;2024-02-15T01:03:52;11.50;99.90
580;DHT22;276;48.392;9.950;2024-02-15T01:06:20;11.50;99.90
580;DHT22;276;48.392;9.950;2024-02-15T01:08:48;11.50;99.90
580;DHT22;276;48.392;9.950;2024-02-15T01:11:16;11.40;99.90
580;DHT22;276;48.392;9.950;2024-02-15T01:13:42;11.30;99.90
580;DHT22;276;48.392;9.950;2024-02-15T01:16:09;11.30;99.90
580;DHT22;276;48.392;9.950;2024-02-15T01:18:37;11.30;99.90
580;DHT22;276;48.392;9.950;2024-02-15T01:21:03;11.20;99.90
580;DHT22;276;48.392;9.950;2024-02-15T01:23:31;11.20;99.90
580;DHT22;276;48.392;9.950;2024-02-15T01:25:57;11.20;99.90
580;DHT22;276;48.392;9.950;2024-02-15T01:28:23;11.10;99.90
580;DHT22;276;48.392;9.950;2024-02-15T01:30:51;11.10;99.90
580;DHT22;276;48.392;9.950;2024-02-15T01:33:19;11.00;99.90
580;DHT22;276;48.392;9.950;2024-02-15T01:35:44;11.00;99.90
580;DHT22;276;48.392;9.950;2024-02-15T01:38:14;11.00;99.90
580;DHT22;276;48.392;9.950;2024-02-15T01:40:39;10.90;99.90
580;DHT22;276;48.392;9.950;2024-02-15T01:43:05;10.90;99.90
580;DHT22;276;48.392;9.950;2024-02-15T01:45:31;10.90;99.90
580;DHT22;276;48.392;9.950;2024-02-15T01:47:59;10.90;99.90
580;DHT22;276;48.392;9.950;2024-02-15T01:50:29;10.80;99.90
580;DHT22;276;48.392;9.950;2024-02-15T01:52:59;10.80;99.90
580;DHT22;276;48.392;9.950;2024-02-15T01:55:26;10.80;99.90
580;DHT22;276;48.392;9.950;2024-02-15T01:57:55;10.80;99.90
580;DHT22;276;48.392;9.950;2024-02-15T02:00:21;10.70;99.90
580;DHT22;276;48.392;9.950;2024-02-15T02:02:47;10.70;99.90
580;DHT22;276;48.392;9.950;2024-02-15T02:05:13;10.70;99.90
580;DHT22;276;48.392;9.950;2024-02-15T02:07:41;10.70;99.90
580;DHT22;276;48.392;9.950;2024-02-15T02:10:08;10.70;99.90
580;DHT22;276;48.392;9.950;2024-02-15T02:12:39;10.70;99.90
580;DHT22;276;48.392;9.950;2024-02-15T02:15:10;10.60;99.90
580;DHT22;276;48.392;9.950;2024-02-15T02:17:36;10.60;99.90
580;DHT22;276;48.392;9.950;2024-02-15T02:20:06;10.50;99.90
580;DHT22;276;48.392;9.950;2024-02-15T02:22:39;10.50;99.90
580;DHT22;276;48.392;9.950;2024-02-15T02:25:12;10.50;99.90
580;DHT22;276;48.392;9.950;2024-02-15T02:27:43;10.40;99.90
580;DHT22;276;48.392;9.950;2024-02-15T02:30:14;10.40;99.90
580;DHT22;276;48.392;9.950;2024-02-15T02:32:46;10.30;99.90
580;DHT22;276;48.392;9.950;2024-02-15T02:35:12;10.30;99.90
580;DHT22;276;48.392;9.950;2024-02-15T02:37:40;10.30;99.90
580;DHT22;276;48.392;9.950;2024-02-15T02:40:09;10.30;99.90
580;DHT22;276;48.392;9.950;2024-02-15T02:42:58;10.20;99.90
580;DHT22;276;48.392;9.950;2024-02-15T02:45:27;10.20;99.90
580;DHT22;276;48.392;9.950;2024-02-15T02:47:56;10.20;99.90
580;DHT22;276;48.392;9.950;2024-02-15T02:50:24;10.10;99.90
580;DHT22;276;48.392;9.950;2024-02-15T02:52:55;10.10;99.90
580;DHT22;276;48.392;9.950;2024-02-15T02:55:23;10.10;99.90
580;DHT22;276;48.392;9.950;2024-02-15T02:57:48;10.00;99.90
580;DHT22;276;48.392;9.950;2024-02-15T03:00:18;10.00;99.90
580;DHT22;276;48.392;9.950;2024-02-15T03:02:48;10.00;99.90
580;DHT22;276;48.392;9.950;2024-02-15T03:05:19;10.00;99.90
580;DHT22;276;48.392;9.950;2024-02-15T03:07:49;10.00;99.90
580;DHT22;276;48.392;9.950;2024-02-15T03:10:17;10.00;99.90
580;DHT22;276;48.392;9.950;2024-02-15T03:12:46;10.00;99.90
580;DHT22;276;48.392;9.950;2024-02-15T03:15:13;10.10;99.90
580;DHT22;276;48.392;9.950;2024-02-15T03:17:43;10.10;99.90
580;DHT22;276;48.392;9.950;2024-02-15T03:20:12;10.00;99.90
580;DHT22;276;48.392;9.950;2024-02-15T03:25:16;10.00;99.90
580;DHT22;276;48.392;9.950;2024-02-15T03:27:41;10.00;99.90
580;DHT22;276;48.392;9.950;2024-02-15T03:30:07;10.10;99.90
580;DHT22;276;48.392;9.950;2024-02-15T03:32:36;10.10;99.90
580;DHT22;276;48.392;9.950;2024-02-15T03:35:02;10.10;99.90
580;DHT22;276;48.392;9.950;2024-02-15T03:37:30;10.10;99.90
580;DHT22;276;48.392;9.950;2024-02-15T03:39:59;10.10;99.90
580;DHT22;276;48.392;9.950;2024-02-15T03:42:24;10.10;99.90
580;DHT22;276;48.392;9.950;2024-02-15T03:44:53;10.20;99.90
580;DHT22;276;48.392;9.950;2024-02-15T03:47:19;10.20;99.90
580;DHT22;276;48.392;9.950;2024-02-15T03:49:50;10.20;99.90
580;DHT22;276;48.392;9.950;2024-02-15T03:52:22;10.20;99.90
580;DHT22;276;48.392;9.950;2024-02-15T03:54:49;10.20;99.90
580;DHT22;276;48.392;9.950;2024-02-15T03:57:18;10.20;99.90
580;DHT22;276;48.392;9.950;2024-02-15T03:59:46;10.20;99.90
580;DHT22;276;48.392;9.950;2024-02-15T04:02:17;10.20;99.90
580;DHT22;276;48.392;9.950;2024-02-15T04:04:43;10.20;99.90
580;DHT22;276;48.392;9.950;2024-02-15T04:07:14;10.20;99.90
580;DHT22;276;48.392;9.950;2024-02-15T04:09:42;10.20;99.90
580;DHT22;276;48.392;9.950;2024-02-15T04:12:08;10.20;99.90
580;DHT22;276;48.392;9.950;2024-02-15T04:14:34;10.10;99.90
580;DHT22;276;48.392;9.950;2024-02-15T04:17:02;10.10;99.90
580;DHT22;276;48.392;9.950;2024-02-15T04:19:36;10.10;99.90
580;DHT22;276;48.392;9.950;2024-02-15T04:22:04;10.00;99.90
580;DHT22;276;48.392;9.950;2024-02-15T04:24:36;10.00;99.90
580;DHT22;276;48.392;9.950;2024-02-15T04:27:07;10.00;99.90
580;DHT22;276;48.392;9.950;2024-02-15T04:29:38;10.00;99.90
580;DHT22;276;48.392;9.950;2024-02-15T04:32:07;9.90;99.90
580;DHT22;276;48.392;9.950;2024-02-15T04:34:37;10.00;99.90
580;DHT22;276;48.392;9.950;2024-02-15T04:37:03;10.00;99.90
580;DHT22;276;48.392;9.950;2024-02-15T04:39:35;9.90;99.90
580;DHT22;276;48.392;9.950;2024-02-15T04:42:05;9.90;99.90
580;DHT22;276;48.392;9.950;2024-02-15T04:44:38;9.90;99.90
580;DHT22;276;48.392;9.950;2024-02-15T04:47:05;9.80;99.90
580;DHT22;276;48.392;9.950;2024-02-15T04:49:31;9.80;99.90
580;DHT22;276;48.392;9.950;2024-02-15T04:51:59;9.80;99.90
580;DHT22;276;48.392;9.950;2024-02-15T04:54:27;9.80;99.90
580;DHT22;276;48.392;9.950;2024-02-15T04:56:55;9.80;99.90
580;DHT22;276;48.392;9.950;2024-02-15T04:59:23;9.80;99.90
580;DHT22;276;48.392;9.950;2024-02-15T05:01:53;9.80;99.90
580;DHT22;276;48.392;9.950;2024-02-15T05:04:22;9.80;99.90
580;DHT22;276;48.392;9.950;2024-02-15T05:06:50;9.80;99.90
580;DHT22;276;48.392;9.950;2024-02-15T05:09:16;9.80;99.90
580;DHT22;276;48.392;9.950;2024-02-15T05:11:44;9.80;99.90
580;DHT22;276;48.392;9.950;2024-02-15T05:14:14;9.80;99.90
580;DHT22;276;48.392;9.950;2024-02-15T05:16:46;9.70;99.90
580;DHT22;276;48.392;9.950;2024-02-15T05:19:15;9.80;99.90
580;DHT22;276;48.392;9.950;2024-02-15T05:21:42;9.70;99.90
580;DHT22;276;48.392;9.950;2024-02-15T05:24:16;9.80;99.90
580;DHT22;276;48.392;9.950;2024-02-15T05:26:43;9.70;99.90
580;DHT22;276;48.392;9.950;2024-02-15T05:29:12;9.70;99.90
580;DHT22;276;48.392;9.950;2024-02-15T05:31:42;9.70;99.90
580;DHT22;276;48.392;9.950;2024-02-15T05:34:10;9.70;99.90
580;DHT22;276;48.392;9.950;2024-02-15T05:36:40;9.60;99.90
580;DHT22;276;48.392;9.950;2024-02-15T05:39:08;9.60;99.90
580;DHT22;276;48.392;9.950;2024-02-15T05:41:39;9.60;99.90
580;DHT22;276;48.392;9.950;2024-02-15T05:44:05;9.50;99.90
580;DHT22;276;48.392;9.950;2024-02-15T05:46:37;9.60;99.90
580;DHT22;276;48.392;9.950;2024-02-15T05:49:05;9.50;99.90
580;DHT22;276;48.392;9.950;2024-02-15T05:51:30;9.50;99.90
580;DHT22;276;48.392;9.950;2024-02-15T05:54:01;9.50;99.90
580;DHT22;276;48.392;9.950;2024-02-15T05:56:30;9.50;99.90
580;DHT22;276;48.392;9.950;2024-02-15T05:58:55;9.50;99.90
580;DHT22;276;48.392;9.950;2024-02-15T06:01:24;9.50;99.90
580;DHT22;276;48.392;9.950;2024-02-15T06:03:49;9.50;99.90
580;DHT22;276;48.392;9.950;2024-02-15T06:06:16;9.50;99.90
580;DHT22;276;48.392;9.950;2024-02-15T06:08:45;9.40;99.90
580;DHT22;276;48.392;9.950;2024-02-15T06:11:11;9.30;99.90
580;DHT22;276;48.392;9.950;2024-02-15T06:13:40;9.30;99.90
580;DHT22;276;48.392;9.950;2024-02-15T06:16:06;9.30;99.90
580;DHT22;276;48.392;9.950;2024-02-15T06:18:37;9.30;99.90
580;DHT22;276;48.392;9.950;2024-02-15T06:21:05;9.30;99.90
580;DHT22;276;48.392;9.950;2024-02-15T06:23:33;9.30;99.90
580;DHT22;276;48.392;9.950;2024-02-15T06:26:02;9.30;99.90
580;DHT22;276;48.392;9.950;2024-02-15T06:28:28;9.30;99.90
580;DHT22;276;48.392;9.950;2024-02-15T06:31:13;9.30;99.90
580;DHT22;276;48.392;9.950;2024-02-15T06:33:57;9.30;99.90
580;DHT22;276;48.392;9.950;2024-02-15T06:36:50;9.30;99.90
580;DHT22;276;48.392;9.950;2024-02-15T06:39:35;9.30;99.90
580;DHT22;276;48.392;9.950;2024-02-15T06:42:04;9.30;99.90
580;DHT22;276;48.392;9.950;2024-02-15T06:44:30;9.30;99.90
580;DHT22;276;48.392;9.950;2024-02-15T06:46:55;9.30;99.90
580;DHT22;276;48.392;9.950;2024-02-15T06:49:24;9.30;99.90
580;DHT22;276;48.392;9.950;2024-02-15T06:51:52;9.30;99.90
580;DHT22;276;48.392;9.950;2024-02-15T06:54:23;9.30;99.90
580;DHT22;276;48.392;9.950;2024-02-15T06:56:49;9.30;99.90
580;DHT22;276;48.392;9.950;2024-02-15T06:59:17;9.30;99.90
580;DHT22;276;48.392;9.950;2024-02-15T07:01:49;9.30;99.90
580;DHT22;276;48.392;9.950;2024-02-15T07:04:16;9.30;99.90
580;DHT22;276;48.392;9.950;2024-02-15T07:06:42;9.30;99.90
580;DHT22;276;48.392;9.950;2024-02-15T07:09:13;9.30;99.90
580;DHT22;276;48.392;9.950;2024-02-15T07:11:43;9.20;99.90
580;DHT22;276;48.392;9.950;2024-02-15T07:14:12;9.30;99.90
580;DHT22;276;48.392;9.950;2024-02-15T07:16:39;9.30;99.90
580;DHT22;276;48.392;9.950;2024-02-15T07:19:04;9.30;99.90
580;DHT22;276;48.392;9.950;2024-02-15T07:21:33;9.30;99.90
580;DHT22;276;48.392;9.950;2024-02-15T07:23:59;9.30;99.90
580;DHT22;276;48.392;9.950;2024-02-15T07:26:26;9.30;99.90
580;DHT22;276;48.392;9.950;2024-02-15T07:28:54;9.30;99.90
580;DHT22;276;48.392;9.950;2024-02-15T07:31:27;9.30;99.90
580;DHT22;276;48.392;9.950;2024-02-15T07:33:55;9.40;99.90
580;DHT22;276;48.392;9.950;2024-02-15T07:36:21;9.40;99.90
580;DHT22;276;48.392;9.950;2024-02-15T07:38:48;9.40;99.90
580;DHT22;276;48.392;9.950;2024-02-15T07:41:22;9.40;99.90
580;DHT22;276;48.392;9.950;2024-02-15T07:43:51;9.40;99.90
580;DHT22;276;48.392;9.950;2024-02-15T07:46:21;9.40;99.90
580;DHT22;276;48.392;9.950;2024-02-15T07:48:47;9.50;99.90
580;DHT22;276;48.392;9.950;2024-02-15T07:51:16;9.50;99.90
580;DHT22;276;48.392;9.950;2024-02-15T07:53:46;9.60;99.90
580;DHT22;276;48.392;9.950;2024-02-15T07:56:15;9.70;99.90
580;DHT22;276;48.392;9.950;2024-02-15T07:58:48;9.80;99.90
580;DHT22;276;48.392;9.950;2024-02-15T08:01:16;9.90;99.90
580;DHT22;276;48.392;9.950;2024-02-15T08:03:46;10.00;99.90
580;DHT22;276;48.392;9.950;2024-02-15T08:06:16;10.00;99.90
580;DHT22;276;48.392;9.950;2024-02-15T08:08:46;10.10;99.90
580;DHT22;276;48.392;9.950;2024-02-15T08:11:13;10.20;99.90
580;DHT22;276;48.392;9.950;2024-02-15T08:13:51;10.30;99.90
580;DHT22;276;48.392;9.950;2024-02-15T08:16:21;10.40;99.90
580;DHT22;276;48.392;9.950;2024-02-15T08:18:48;10.40;99.90
580;DHT22;276;48.392;9.950;2024-02-15T08:21:17;10.50;99.90
580;DHT22;276;48.392;9.950;2024-02-15T08:23:43;10.60;99.90
580;DHT22;276;48.392;9.950;2024-02-15T08:26:09;10.70;99.90
580;DHT22;276;48.392;9.950;2024-02-15T08:28:36;10.70;99.90
580;DHT22;276;48.392;9.950;2024-02-15T08:31:02;10.80;99.90
580;DHT22;276;48.392;9.950;2024-02-15T08:33:29;10.90;99.90
580;DHT22;276;48.392;9.950;2024-02-15T08:35:55;11.00;99.90
580;DHT22;276;48.392;9.950;2024-02-15T08:38:24;11.10;99.90
580;DHT22;276;48.392;9.950;2024-02-15T08:40:49;11.20;99.90
580;DHT22;276;48.392;9.950;2024-02-15T08:43:18;11.30;99.90
580;DHT22;276;48.392;9.950;2024-02-15T08:45:43;11.40;99.90
580;DHT22;276;48.392;9.950;2024-02-15T08:48:10;11.60;99.90
580;DHT22;276;48.392;9.950;2024-02-15T08:50:36;11.60;99.90
580;DHT22;276;48.392;9.950;2024-02-15T08:53:07;11.70;99.90
580;DHT22;276;48.392;9.950;2024-02-15T08:55:32;11.80;99.90
580;DHT22;276;48.392;9.950;2024-02-15T08:58:03;11.90;99.90
580;DHT22;276;48.392;9.950;2024-02-15T09:00:29;12.00;99.90
580;DHT22;276;48.392;9.950;2024-02-15T09:02:55;12.10;99.90
580;DHT22;276;48.392;9.950;2024-02-15T09:05:22;12.20;99.90
580;DHT22;276;48.392;9.950;2024-02-15T09:07:48;12.30;99.90
580;DHT22;276;48.392;9.950;2024-02-15T09:10:15;12.40;99.90
580;DHT22;276;48.392;9.950;2024-02-15T09:12:46;12.60;99.90
580;DHT22;276;48.392;9.950;2024-02-15T09:15:15;12.80;99.90
580;DHT22;276;48.392;9.950;2024-02-15T09:17:43;12.90;99.90
580;DHT22;276;48.392;9.950;2024-02-15T09:20:12;13.10;99.90
580;DHT22;276;48.392;9.950;2024-02-15T09:22:53;13.20;99.90
580;DHT22;276;48.392;9.950;2024-02-15T09:25:22;13.30;99.90
580;DHT22;276;48.392;9.950;2024-02-15T09:27:53;13.40;99.90
580;DHT22;276;48.392;9.950;2024-02-15T09:30:21;13.40;99.90
580;DHT22;276;48.392;9.950;2024-02-15T09:32:50;13.60;99.90
580;DHT22;276;48.392;9.950;2024-02-15T09:35:17;13.80;99.90
580;DHT22;276;48.392;9.950;2024-02-15T09:37:45;14.00;99.90
580;DHT22;276;48.392;9.950;2024-02-15T09:40:12;14.20;99.90
580;DHT22;276;48.392;9.950;2024-02-15T09:42:38;14.30;99.90
580;DHT22;276;48.392;9.950;2024-02-15T09:45:08;14.40;99.90
580;DHT22;276;48.392;9.950;2024-02-15T09:47:38;14.50;99.90
580;DHT22;276;48.392;9.950;2024-02-15T09:50:10;14.60;99.90
580;DHT22;276;48.392;9.950;2024-02-15T09:52:51;14.60;99.00
580;DHT22;276;48.392;9.950;2024-02-15T09:55:20;14.70;99.20
580;DHT22;276;48.392;9.950;2024-02-15T09:57:50;14.80;99.30
580;DHT22;276;48.392;9.950;2024-02-15T10:00:22;14.90;99.20
580;DHT22;276;48.392;9.950;2024-02-15T10:02:51;15.00;98.70
580;DHT22;276;48.392;9.950;2024-02-15T10:05:19;15.00;98.50
580;DHT22;276;48.392;9.950;2024-02-15T10:07:49;14.90;98.30
580;DHT22;276;48.392;9.950;2024-02-15T10:10:23;15.00;98.20
580;DHT22;276;48.392;9.950;2024-02-15T10:12:52;15.00;98.10
580;DHT22;276;48.392;9.950;2024-02-15T10:15:33;15.00;98.30
580;DHT22;276;48.392;9.950;2024-02-15T10:18:06;15.30;98.30
580;DHT22;276;48.392;9.950;2024-02-15T10:20:38;15.50;96.90
580;DHT22;276;48.392;9.950;2024-02-15T10:25:36;15.70;96.00
580;DHT22;276;48.392;9.950;2024-02-15T10:28:11;15.80;95.90
580;DHT22;276;48.392;9.950;2024-02-15T10:30:44;16.00;95.60
580;DHT22;276;48.392;9.950;2024-02-15T10:33:27;16.40;95.40
580;DHT22;276;48.392;9.950;2024-02-15T10:36:09;16.80;94.60
580;DHT22;276;48.392;9.950;2024-02-15T10:38:36;17.10;94.30
580;DHT22;276;48.392;9.950;2024-02-15T10:41:06;17.50;93.90
580;DHT22;276;48.392;9.950;2024-02-15T10:43:36;17.90;93.40
580;DHT22;276;48.392;9.950;2024-02-15T10:46:07;18.40;93.10
580;DHT22;276;48.392;9.950;2024-02-15T10:48:36;18.80;92.40
580;DHT22;276;48.392;9.950;2024-02-15T10:51:04;19.40;91.70
580;DHT22;276;48.392;9.950;2024-02-15T10:53:35;20.00;90.70
580;DHT22;276;48.392;9.950;2024-02-15T10:56:21;20.70;89.60
580;DHT22;276;48.392;9.950;2024-02-15T10:59:24;21.30;87.30
580;DHT22;276;48.392;9.950;2024-02-15T11:01:59;22.00;84.00
580;DHT22;276;48.392;9.950;2024-02-15T11:04:27;22.70;82.20
580;DHT22;276;48.392;9.950;2024-02-15T11:06:58;23.20;79.30
580;DHT22;276;48.392;9.950;2024-02-15T11:09:27;23.90;76.00
580;DHT22;276;48.392;9.950;2024-02-15T11:11:55;24.60;73.80
580;DHT22;276;48.392;9.950;2024-02-15T11:14:31;25.10;71.00
580;DHT22;276;48.392;9.950;2024-02-15T11:17:02;25.60;68.20
580;DHT22;276;48.392;9.950;2024-02-15T11:22:15;27.10;63.50
580;DHT22;276;48.392;9.950;2024-02-15T11:24:48;27.90;61.10
580;DHT22;276;48.392;9.950;2024-02-15T11:27:27;28.70;58.80
580;DHT22;276;48.392;9.950;2024-02-15T11:35:08;30.80;52.90
580;DHT22;276;48.392;9.950;2024-02-15T11:43:08;32.10;48.50
580;DHT22;276;48.392;9.950;2024-02-15T11:45:36;32.40;47.60
580;DHT22;276;48.392;9.950;2024-02-15T11:48:13;32.40;46.60
580;DHT22;276;48.392;9.950;2024-02-15T11:50:39;32.30;46.10
580;DHT22;276;48.392;9.950;2024-02-15T11:53:06;32.30;46.20
580;DHT22;276;48.392;9.950;2024-02-15T11:55:38;32.30;46.10
580;DHT22;276;48.392;9.950;2024-02-15T11:58:08;32.00;45.50
580;DHT22;276;48.392;9.950;2024-02-15T12:00:34;31.50;45.90
580;DHT22;276;48.392;9.950;2024-02-15T12:03:24;31.00;46.50
580;DHT22;276;48.392;9.950;2024-02-15T12:06:08;30.50;47.00
580;DHT22;276;48.392;9.950;2024-02-15T12:08:54;29.90;47.90
580;DHT22;276;48.392;9.950;2024-02-15T12:11:39;29.20;48.30
580;DHT22;276;48.392;9.950;2024-02-15T12:14:25;28.30;49.60
580;DHT22;276;48.392;9.950;2024-02-15T12:17:26;27.30;51.10
580;DHT22;276;48.392;9.950;2024-02-15T12:20:10;26.30;52.60
580;DHT22;276;48.392;9.950;2024-02-15T12:22:47;25.30;54.50
580;DHT22;276;48.392;9.950;2024-02-15T12:25:18;24.60;55.80
580;DHT22;276;48.392;9.950;2024-02-15T12:27:52;24.00;56.80
580;DHT22;276;48.392;9.950;2024-02-15T12:30:22;23.40;57.90
580;DHT22;276;48.392;9.950;2024-02-15T12:32:53;22.90;58.80
580;DHT22;276;48.392;9.950;2024-02-15T12:35:34;22.50;59.30
580;DHT22;276;48.392;9.950;2024-02-15T12:40:32;21.90;60.90
580;DHT22;276;48.392;9.950;2024-02-15T12:43:04;21.70;62.00
580;DHT22;276;48.392;9.950;2024-02-15T12:45:38;21.60;62.50
580;DHT22;276;48.392;9.950;2024-02-15T12:48:08;21.30;62.80
580;DHT22;276;48.392;9.950;2024-02-15T12:50:36;21.20;64.10
580;DHT22;276;48.392;9.950;2024-02-15T12:53:02;20.90;65.10
580;DHT22;276;48.392;9.950;2024-02-15T12:55:38;20.90;65.80
580;DHT22;276;48.392;9.950;2024-02-15T12:58:09;20.70;66.00
580;DHT22;276;48.392;9.950;2024-02-15T13:00:39;20.60;66.20
580;DHT22;276;48.392;9.950;2024-02-15T13:03:06;20.50;66.60
580;DHT22;276;48.392;9.950;2024-02-15T13:05:35;20.40;67.00
580;DHT22;276;48.392;9.950;2024-02-15T13:08:06;20.40;67.10
580;DHT22;276;48.392;9.950;2024-02-15T13:10:38;20.20;67.00
580;DHT22;276;48.392;9.950;2024-02-15T13:13:04;20.20;67.90
580;DHT22;276;48.392;9.950;2024-02-15T13:15:33;20.10;68.40
580;DHT22;276;48.392;9.950;2024-02-15T13:18:00;20.00;68.60
580;DHT22;276;48.392;9.950;2024-02-15T13:20:26;19.90;68.50
580;DHT22;276;48.392;9.950;2024-02-15T13:23:00;19.90;68.80
580;DHT22;276;48.392;9.950;2024-02-15T13:25:28;19.80;69.30
580;DHT22;276;48.392;9.950;2024-02-15T13:27:57;19.70;69.60
580;DHT22;276;48.392;9.950;2024-02-15T13:30:25;19.60;70.00
580;DHT22;276;48.392;9.950;2024-02-15T13:32:53;19.50;70.50
580;DHT22;276;48.392;9.950;2024-02-15T13:35:22;19.50;70.90
580;DHT22;276;48.392;9.950;2024-02-15T13:37:51;19.40;71.00
580;DHT22;276;48.392;9.950;2024-02-15T13:40:20;19.30;71.50
580;DHT22;276;48.392;9.950;2024-02-15T13:42:49;19.20;71.80
580;DHT22;276;48.392;9.950;2024-02-15T13:45:21;19.00;71.90
580;DHT22;276;48.392;9.950;2024-02-15T13:47:56;18.90;72.40
580;DHT22;276;48.392;9.950;2024-02-15T13:50:23;18.80;72.70
580;DHT22;276;48.392;9.950;2024-02-15T13:52:53;18.70;73.60
580;DHT22;276;48.392;9.950;2024-02-15T13:55:23;18.50;74.20
580;DHT22;276;48.392;9.950;2024-02-15T13:57:51;18.40;74.90
580;DHT22;276;48.392;9.950;2024-02-15T14:00:21;18.40;75.30
580;DHT22;276;48.392;9.950;2024-02-15T14:02:53;18.30;75.70
580;DHT22;276;48.392;9.950;2024-02-15T14:05:21;18.20;76.10
580;DHT22;276;48.392;9.950;2024-02-15T14:07:54;18.00;76.70
580;DHT22;276;48.392;9.950;2024-02-15T14:10:24;17.90;77.20
580;DHT22;276;48.392;9.950;2024-02-15T14:12:53;17.80;77.60
580;DHT22;276;48.392;9.950;2024-02-15T14:15:29;17.70;78.10
580;DHT22;276;48.392;9.950;2024-02-15T14:17:57;17.60;78.40
580;DHT22;276;48.392;9.950;2024-02-15T14:20:24;17.60;78.80
580;DHT22;276;48.392;9.950;2024-02-15T14:22:52;17.60;79.20
580;DHT22;276;48.392;9.950;2024-02-15T14:25:24;17.50;79.50
580;DHT22;276;48.392;9.950;2024-02-15T14:27:56;17.50;80.00
580;DHT22;276;48.392;9.950;2024-02-15T14:30:22;17.50;80.30
580;DHT22;276;48.392;9.950;2024-02-15T14:33:06;17.40;80.60
580;DHT22;276;48.392;9.950;2024-02-15T14:35:41;17.30;81.00
580;DHT22;276;48.392;9.950;2024-02-15T14:38:12;17.30;81.30
580;DHT22;276;48.392;9.950;2024-02-15T14:40:40;17.30;81.60
580;DHT22;276;48.392;9.950;2024-02-15T14:43:10;17.20;82.00
580;DHT22;276;48.392;9.950;2024-02-15T14:45:39;17.20;82.30
580;DHT22;276;48.392;9.950;2024-02-15T14:48:08;17.20;82.80
580;DHT22;276;48.392;9.950;2024-02-15T14:50:36;17.10;83.10
580;DHT22;276;48.392;9.950;2024-02-15T14:53:04;17.10;83.70
580;DHT22;276;48.392;9.950;2024-02-15T14:55:30;17.10;84.20
580;DHT22;276;48.392;9.950;2024-02-15T14:57:59;17.10;84.60
580;DHT22;276;48.392;9.950;2024-02-15T15:00:24;17.10;85.10
580;DHT22;276;48.392;9.950;2024-02-15T15:02:53;17.10;85.60
580;DHT22;276;48.392;9.950;2024-02-15T15:05:25;17.00;85.90
580;DHT22;276;48.392;9.950;2024-02-15T15:08:09;17.00;86.40
580;DHT22;276;48.392;9.950;2024-02-15T15:10:54;16.90;87.30
580;DHT22;276;48.392;9.950;2024-02-15T15:13:41;16.90;87.80
580;DHT22;276;48.392;9.950;2024-02-15T15:16:07;16.80;88.10
580;DHT22;276;48.392;9.950;2024-02-15T15:18:35;16.80;88.40
580;DHT22;276;48.392;9.950;2024-02-15T15:21:01;16.80;88.70
580;DHT22;276;48.392;9.950;2024-02-15T15:23:29;16.80;89.00
580;DHT22;276;48.392;9.950;2024-02-15T15:25:58;16.80;89.50
580;DHT22;276;48.392;9.950;2024-02-15T15:28:24;16.80;89.80
580;DHT22;276;48.392;9.950;2024-02-15T15:30:50;16.80;90.00
580;DHT22;276;48.392;9.950;2024-02-15T15:33:17;16.80;90.10
580;DHT22;276;48.392;9.950;2024-02-15T15:35:43;16.60;90.20
580;DHT22;276;48.392;9.950;2024-02-15T15:38:14;16.60;90.60
580;DHT22;276;48.392;9.950;2024-02-15T15:40:42;16.60;90.70
580;DHT22;276;48.392;9.950;2024-02-15T15:43:08;16.50;90.80
580;DHT22;276;48.392;9.950;2024-02-15T15:45:34;16.50;91.00
580;DHT22;276;48.392;9.950;2024-02-15T15:48:00;16.60;91.10
580;DHT22;276;48.392;9.950;2024-02-15T15:50:28;16.50;91.20
580;DHT22;276;48.392;9.950;2024-02-15T15:52:58;16.50;91.40
580;DHT22;276;48.392;9.950;2024-02-15T15:55:24;16.50;91.50
580;DHT22;276;48.392;9.950;2024-02-15T15:57:52;16.50;91.80
580;DHT22;276;48.392;9.950;2024-02-15T16:00:17;16.50;91.90
580;DHT22;276;48.392;9.950;2024-02-15T16:02:45;16.50;92.00
580;DHT22;276;48.392;9.950;2024-02-15T16:05:16;16.40;92.10
580;DHT22;276;48.392;9.950;2024-02-15T16:07:44;16.40;92.30
580;DHT22;276;48.392;9.950;2024-02-15T16:10:15;16.40;92.60
580;DHT22;276;48.392;9.950;2024-02-15T16:12:44;16.40;92.80
580;DHT22;276;48.392;9.950;2024-02-15T16:15:10;16.30;93.00
580;DHT22;276;48.392;9.950;2024-02-15T16:17:42;16.30;93.20
580;DHT22;276;48.392;9.950;2024-02-15T16:20:09;16.30;93.40
580;DHT22;276;48.392;9.950;2024-02-15T16:22:38;16.30;93.60
580;DHT22;276;48.392;9.950;2024-02-15T16:25:05;16.20;94.10
580;DHT22;276;48.392;9.950;2024-02-15T16:27:44;16.30;94.00
580;DHT22;276;48.392;9.950;2024-02-15T16:30:11;16.20;94.20
580;DHT22;276;48.392;9.950;2024-02-15T16:32:39;16.20;94.40
580;DHT22;276;48.392;9.950;2024-02-15T16:35:11;16.20;94.70
580;DHT22;276;48.392;9.950;2024-02-15T16:37:39;16.10;94.90
580;DHT22;276;48.392;9.950;2024-02-15T16:40:10;16.10;95.20
580;DHT22;276;48.392;9.950;2024-02-15T16:42:40;16.00;95.40
580;DHT22;276;48.392;9.950;2024-02-15T16:45:09;15.90;95.60
580;DHT22;276;48.392;9.950;2024-02-15T16:47:37;15.90;95.70
580;DHT22;276;48.392;9.950;2024-02-15T16:50:06;15.90;96.00
580;DHT22;276;48.392;9.950;2024-02-15T16:52:37;15.80;96.20
580;DHT22;276;48.392;9.950;2024-02-15T16:55:06;15.70;96.30
580;DHT22;276;48.392;9.950;2024-02-15T16:57:36;15.70;96.50
580;DHT22;276;48.392;9.950;2024-02-15T17:00:04;15.60;96.80
580;DHT22;276;48.392;9.950;2024-02-15T17:02:34;15.50;97.00
580;DHT22;276;48.392;9.950;2024-02-15T17:05:03;15.50;97.30
580;DHT22;276;48.392;9.950;2024-02-15T17:07:30;15.40;97.40
580;DHT22;276;48.392;9.950;2024-02-15T17:09:56;15.40;97.70
580;DHT22;276;48.392;9.950;2024-02-15T17:12:22;15.30;97.90
580;DHT22;276;48.392;9.950;2024-02-15T17:14:48;15.20;98.10
580;DHT22;276;48.392;9.950;2024-02-15T17:17:14;15.10;98.30